sensor_id;sensor_type;location;lat;lon;timestamp;temperature;humidity
16968;DHT22;64862;54.398;10.126;2023-02-01T00:09:46;5.00;99.90
16968;DHT22;64862;54.398;10.126;2023-02-01T00:19:48;5.00;99.90
16968;DHT22;64862;54.398;10.126;2023-02-01T00:29:51;5.10;99.90
16968;DHT22;64862;54.398;10.126;2023-02-01T00:39:55;5.10;99.90
16968;DHT22;64862;54.398;10.126;2023-02-01T00:49:59;5.20;99.90
16968;DHT22;64862;54.398;10.126;2023-02-01T01:00:02;5.40;99.90
16968;DHT22;64862;54.398;10.126;2023-02-01T01:10:06;5.70;99.90
16968;DHT22;64862;54.398;10.126;2023-02-01T01:20:10;5.70;99.90
16968;DHT22;64862;54.398;10.126;2023-02-01T01:30:14;5.70;99.90
16968;DHT22;64862;54.398;10.126;2023-02-01T01:40:16;5.80;99.90
16968;DHT22;64862;54.398;10.126;2023-02-01T01:50:25;5.80;99.90
16968;DHT22;64862;54.398;10.126;2023-02-01T02:00:29;5.90;99.90
16968;DHT22;64862;54.398;10.126;2023-02-01T02:10:32;5.90;99.90
16968;DHT22;64862;54.398;10.126;2023-02-01T02:31:50;5.90;99.90
16968;DHT22;64862;54.398;10.126;2023-02-01T02:42:02;6.00;99.90
16968;DHT22;64862;54.398;10.126;2023-02-01T02:52:27;6.00;99.90
16968;DHT22;64862;54.398;10.126;2023-02-01T03:02:49;6.00;99.90
16968;DHT22;64862;54.398;10.126;2023-02-01T03:13:12;6.00;99.90
16968;DHT22;64862;54.398;10.126;2023-02-01T03:23:19;6.00;99.90
16968;DHT22;64862;54.398;10.126;2023-02-01T03:33:25;6.00;99.90
16968;DHT22;64862;54.398;10.126;2023-02-01T03:43:33;6.00;99.90
16968;DHT22;64862;54.398;10.126;2023-02-01T03:53:37;6.10;99.90
16968;DHT22;64862;54.398;10.126;2023-02-01T04:03:42;6.10;99.90
16968;DHT22;64862;54.398;10.126;2023-02-01T04:13:45;5.70;99.90
16968;DHT22;64862;54.398;10.126;2023-02-01T04:23:48;5.50;99.90
16968;DHT22;64862;54.398;10.126;2023-02-01T04:33:51;5.30;99.90
16968;DHT22;64862;54.398;10.126;2023-02-01T04:43:55;5.30;99.90
16968;DHT22;64862;54.398;10.126;2023-02-01T04:53:57;5.20;99.90
16968;DHT22;64862;54.398;10.126;2023-02-01T05:04:01;5.30;99.90
16968;DHT22;64862;54.398;10.126;2023-02-01T05:14:03;5.30;99.90
16968;DHT22;64862;54.398;10.126;2023-02-01T05:24:08;5.30;99.90
16968;DHT22;64862;54.398;10.126;2023-02-01T05:34:15;5.20;99.90
16968;DHT22;64862;54.398;10.126;2023-02-01T05:44:18;5.50;99.90
16968;DHT22;64862;54.398;10.126;2023-02-01T05:54:20;5.70;99.90
16968;DHT22;64862;54.398;10.126;2023-02-01T06:04:24;5.70;99.90
16968;DHT22;64862;54.398;10.126;2023-02-01T06:14:26;5.70;99.90
16968;DHT22;64862;54.398;10.126;2023-02-01T06:24:29;5.70;99.90
16968;DHT22;64862;54.398;10.126;2023-02-01T06:34:31;5.70;99.90
16968;DHT22;64862;54.398;10.126;2023-02-01T06:44:38;5.50;99.90
16968;DHT22;64862;54.398;10.126;2023-02-01T06:54:40;5.40;99.90
16968;DHT22;64862;54.398;10.126;2023-02-01T07:04:44;5.30;99.90
16968;DHT22;64862;54.398;10.126;2023-02-01T07:14:46;5.40;99.90
16968;DHT22;64862;54.398;10.126;2023-02-01T07:24:49;5.40;99.90
16968;DHT22;64862;54.398;10.126;2023-02-01T07:34:51;5.50;99.90
16968;DHT22;64862;54.398;10.126;2023-02-01T07:44:54;5.50;99.90
16968;DHT22;64862;54.398;10.126;2023-02-01T07:54:56;5.60;99.90
16968;DHT22;64862;54.398;10.126;2023-02-01T08:04:59;5.80;99.90
16968;DHT22;64862;54.398;10.126;2023-02-01T08:15:01;6.00;99.90
16968;DHT22;64862;54.398;10.126;2023-02-01T08:25:06;6.30;99.90
16968;DHT22;64862;54.398;10.126;2023-02-01T08:35:08;6.30;99.90
16968;DHT22;64862;54.398;10.126;2023-02-01T08:45:12;6.50;99.90
16968;DHT22;64862;54.398;10.126;2023-02-01T08:55:14;6.90;99.90
16968;DHT22;64862;54.398;10.126;2023-02-01T09:05:18;6.80;99.90
16968;DHT22;64862;54.398;10.126;2023-02-01T09:15:22;8.40;99.90
16968;DHT22;64862;54.398;10.126;2023-02-01T09:25:26;8.60;99.90
16968;DHT22;64862;54.398;10.126;2023-02-01T09:35:28;7.20;99.90
16968;DHT22;64862;54.398;10.126;2023-02-01T09:45:37;7.60;99.90
16968;DHT22;64862;54.398;10.126;2023-02-01T09:55:45;7.50;99.90
16968;DHT22;64862;54.398;10.126;2023-02-01T10:06:10;7.30;99.90
16968;DHT22;64862;54.398;10.126;2023-02-01T10:16:24;8.00;99.90
16968;DHT22;64862;54.398;10.126;2023-02-01T10:26:33;7.50;99.90
16968;DHT22;64862;54.398;10.126;2023-02-01T10:36:39;6.90;99.90
16968;DHT22;64862;54.398;10.126;2023-02-01T10:46:43;7.20;99.90
16968;DHT22;64862;54.398;10.126;2023-02-01T10:56:45;8.20;99.90
16968;DHT22;64862;54.398;10.126;2023-02-01T11:06:53;8.70;99.90
16968;DHT22;64862;54.398;10.126;2023-02-01T11:16:58;8.10;99.90
16968;DHT22;64862;54.398;10.126;2023-02-01T11:27:04;7.60;99.90
16968;DHT22;64862;54.398;10.126;2023-02-01T11:47:39;7.60;99.90
16968;DHT22;64862;54.398;10.126;2023-02-01T11:57:51;7.80;99.90
16968;DHT22;64862;54.398;10.126;2023-02-01T12:18:46;7.10;99.90
16968;DHT22;64862;54.398;10.126;2023-02-01T12:29:08;7.10;99.90
16968;DHT22;64862;54.398;10.126;2023-02-01T12:39:22;7.20;99.90
16968;DHT22;64862;54.398;10.126;2023-02-01T12:49:33;7.30;99.90
16968;DHT22;64862;54.398;10.126;2023-02-01T12:59:41;7.50;99.90
16968;DHT22;64862;54.398;10.126;2023-02-01T13:09:49;8.00;99.90
16968;DHT22;64862;54.398;10.126;2023-02-01T13:19:54;7.80;99.90
16968;DHT22;64862;54.398;10.126;2023-02-01T13:30:01;5.80;99.90
16968;DHT22;64862;54.398;10.126;2023-02-01T13:40:22;5.50;99.90
16968;DHT22;64862;54.398;10.126;2023-02-01T13:50:31;5.80;99.90
16968;DHT22;64862;54.398;10.126;2023-02-01T14:00:40;6.20;99.90
16968;DHT22;64862;54.398;10.126;2023-02-01T14:10:48;6.40;99.90
16968;DHT22;64862;54.398;10.126;2023-02-01T14:21:15;6.70;99.90
16968;DHT22;64862;54.398;10.126;2023-02-01T14:31:39;6.70;99.90
16968;DHT22;64862;54.398;10.126;2023-02-01T14:41:44;6.80;99.90
16968;DHT22;64862;54.398;10.126;2023-02-01T14:51:53;6.80;99.90
16968;DHT22;64862;54.398;10.126;2023-02-01T15:02:00;6.60;99.90
16968;DHT22;64862;54.398;10.126;2023-02-01T15:12:17;6.50;99.90
16968;DHT22;64862;54.398;10.126;2023-02-01T15:22:27;6.50;99.90
16968;DHT22;64862;54.398;10.126;2023-02-01T15:32:36;6.60;99.90
16968;DHT22;64862;54.398;10.126;2023-02-01T15:42:50;6.70;99.90
16968;DHT22;64862;54.398;10.126;2023-02-01T15:53:02;6.70;99.90
16968;DHT22;64862;54.398;10.126;2023-02-01T16:03:25;6.60;99.90
16968;DHT22;64862;54.398;10.126;2023-02-01T16:13:29;6.70;99.90
16968;DHT22;64862;54.398;10.126;2023-02-01T16:23:33;6.90;99.90
16968;DHT22;64862;54.398;10.126;2023-02-01T16:33:38;6.50;99.90
16968;DHT22;64862;54.398;10.126;2023-02-01T16:43:42;6.30;99.90
16968;DHT22;64862;54.398;10.126;2023-02-01T16:53:46;6.20;99.90
16968;DHT22;64862;54.398;10.126;2023-02-01T17:03:50;6.20;99.90
16968;DHT22;64862;54.398;10.126;2023-02-01T17:13:56;6.50;99.90
16968;DHT22;64862;54.398;10.126;2023-02-01T17:23:58;6.60;99.90
16968;DHT22;64862;54.398;10.126;2023-02-01T17:34:06;6.50;99.90
16968;DHT22;64862;54.398;10.126;2023-02-01T17:44:09;6.40;99.90
16968;DHT22;64862;54.398;10.126;2023-02-01T17:54:17;6.30;99.90
16968;DHT22;64862;54.398;10.126;2023-02-01T18:04:20;6.40;99.90
16968;DHT22;64862;54.398;10.126;2023-02-01T18:14:24;6.50;99.90
16968;DHT22;64862;54.398;10.126;2023-02-01T18:24:26;6.60;99.90
16968;DHT22;64862;54.398;10.126;2023-02-01T18:34:32;6.60;99.90
16968;DHT22;64862;54.398;10.126;2023-02-01T18:44:34;6.60;99.90
16968;DHT22;64862;54.398;10.126;2023-02-01T18:54:38;6.50;99.90
16968;DHT22;64862;54.398;10.126;2023-02-01T19:04:40;6.20;99.90
16968;DHT22;64862;54.398;10.126;2023-02-01T19:14:44;5.90;99.90
16968;DHT22;64862;54.398;10.126;2023-02-01T19:24:46;5.90;99.90
16968;DHT22;64862;54.398;10.126;2023-02-01T19:34:50;5.90;99.90
16968;DHT22;64862;54.398;10.126;2023-02-01T19:44:53;6.10;99.90
16968;DHT22;64862;54.398;10.126;2023-02-01T19:54:56;6.20;99.90
16968;DHT22;64862;54.398;10.126;2023-02-01T20:05:00;6.40;99.90
16968;DHT22;64862;54.398;10.126;2023-02-01T20:15:04;6.50;99.90
16968;DHT22;64862;54.398;10.126;2023-02-01T20:25:08;6.50;99.90
16968;DHT22;64862;54.398;10.126;2023-02-01T20:35:13;6.60;99.90
16968;DHT22;64862;54.398;10.126;2023-02-01T20:45:15;6.60;99.90
16968;DHT22;64862;54.398;10.126;2023-02-01T20:55:19;6.70;99.90
16968;DHT22;64862;54.398;10.126;2023-02-01T21:05:22;6.80;99.90
16968;DHT22;64862;54.398;10.126;2023-02-01T21:15:44;6.80;99.90
16968;DHT22;64862;54.398;10.126;2023-02-01T21:25:48;6.90;99.90
16968;DHT22;64862;54.398;10.126;2023-02-01T21:35:53;6.90;99.90
16968;DHT22;64862;54.398;10.126;2023-02-01T21:45:55;6.80;99.90
16968;DHT22;64862;54.398;10.126;2023-02-01T21:55:59;6.90;99.90
16968;DHT22;64862;54.398;10.126;2023-02-01T22:06:02;6.90;99.90
16968;DHT22;64862;54.398;10.126;2023-02-01T22:16:07;6.80;99.90
16968;DHT22;64862;54.398;10.126;2023-02-01T22:26:13;6.80;99.90
16968;DHT22;64862;54.398;10.126;2023-02-01T22:36:17;6.80;99.90
16968;DHT22;64862;54.398;10.126;2023-02-01T22:46:22;6.80;99.90
16968;DHT22;64862;54.398;10.126;2023-02-01T22:56:40;6.70;99.90
16968;DHT22;64862;54.398;10.126;2023-02-01T23:06:42;6.90;99.90
16968;DHT22;64862;54.398;10.126;2023-02-01T23:16:47;6.80;99.90
16968;DHT22;64862;54.398;10.126;2023-02-01T23:26:49;6.80;99.90
16968;DHT22;64862;54.398;10.126;2023-02-01T23:36:53;6.60;99.90
16968;DHT22;64862;54.398;10.126;2023-02-01T23:46:57;6.70;99.90
16968;DHT22;64862;54.398;10.126;2023-02-01T23:57:02;6.70;99.90
